EGPN

Dundee Airport

Dundee, United Kingdom
METAR EGPN 100650Z 00000KT 9999 FEW045 03/M01 Q1023
Observed Flight Rules
Dec-10 @ 06:50 UTC (19 minutes ago) Visual Flight Rules
Visibility Clouds
10,000+ meters
  • Few at 4,500' AGL
Temperatures Readings
Current 3°C / 37°F
Dewpoint -1°C / 30°F
Humidity 75%
Altimeter 30.21" Hg
Pressure 1023 hPa
Elevation 4
METAR EGPN 100650Z 00000KT 9999 FEW045 03/M01 Q1023
Observed Flight Rules
Dec-10 @ 06:50 UTC
(19 minutes ago)
VFR
Clouds
  • Few at 4,500' AGL
Temperature Dewpoint
3°C / 37°F -1°C / 30°F
Humidity Altimeter Pressure
75% 30.21" Hg 1023 hPa